Data for 11/02/2010

Time Sea-Level Adjusted Pressure Absolute Pressure Temperature Relative Humidity Dew Point   
(mb) (inHg) (mb) (inHg) (C) (F) (%) (C) (F)
00:05 1028 30.36 857 25.31 5.7 42.2 66 -0.3 31.5
00:10 1028 30.36 857 25.31 6 42.9 64 -0.2 31.7
00:15 1028 30.36 857 25.31 6.2 43.2 64 -0.1 31.9
00:20 1028 30.36 857 25.31 6.6 43.8 62 -0.2 31.7
00:25 1028 30.36 857 25.31 6.8 44.2 62 0.1 32.2
00:30 1028 30.36 857 25.31 6.7 44.1 62 -0.1 31.8
00:35 1028 30.36 857 25.31 6.8 44.2 62 0 32.1
00:40 1028 30.36 857 25.31 6.8 44.3 62 0.1 32.2
00:45 1028 30.36 857 25.31 6.7 44.1 63 0.3 32.5
00:50 1028 30.36 857 25.31 6.5 43.7 64 0.2 32.3
00:55 1028 30.36 857 25.31 6.3 43.4 65 0.2 32.3
01:00 1028 30.36 857 25.31 6.4 43.5 64 0.1 32.2
01:05 1028 30.36 857 25.31 6.6 43.9 62 -0.1 31.9
01:10 1028 30.36 857 25.31 7.1 44.7 61 -0 32
01:15 1028 30.36 858 25.34 7.4 45.3 60 0.2 32.4
01:20 1028 30.36 858 25.34 6.8 44.2 63 0.3 32.6
01:25 1028 30.36 858 25.34 6.3 43.3 66 0.4 32.7
01:30 1028 30.36 858 25.34 5.7 42.3 68 0.4 32.6
01:35 1028 30.36 858 25.34 5.1 41.1 72 0.4 32.7
01:40 1028 30.36 858 25.34 5.3 41.6 69 0.2 32.3
01:45 1028 30.36 858 25.34 5.8 42.4 69 0.5 32.9
01:50 1028 30.36 857 25.31 5.7 42.2 68 0.3 32.5
01:55 1028 30.36 857 25.31 5.8 42.4 68 0.4 32.8
02:00 1028 30.36 857 25.31 5.4 41.7 69 0.2 32.3
02:05 1028 30.36 858 25.34 5.3 41.5 70 0.2 32.3
02:10 1028 30.36 858 25.34 6.1 43.1 64 -0.2 31.7
02:15 1028 30.36 858 25.34 6.7 44.1 63 0.3 32.5
02:20 1028 30.36 857 25.31 6.8 44.2 64 0.5 32.9
02:25 1028 30.36 857 25.31 7 44.7 64 0.7 33.2
02:30 1028 30.36 858 25.34 6.1 42.9 67 0.4 32.8
02:35 1028 30.36 858 25.34 5.8 42.4 69 0.6 33
02:40 1028 30.36 858 25.34 5.3 41.6 69 0.2 32.3
02:45 1028 30.36 858 25.34 5.9 42.7 64 -0.3 31.5
02:50 1028 30.36 858 25.34 6.7 44.1 64 0.5 32.8
02:55 1028 30.36 858 25.34 6.6 43.8 64 0.2 32.4
03:00 1029 30.39 858 25.34 6.7 44.1 63 0.3 32.5
03:05 1029 30.39 858 25.34 6.8 44.3 63 0.3 32.5
03:10 1029 30.39 858 25.34 6.6 43.8 65 0.5 32.9
03:15 1029 30.39 858 25.34 6.1 43 66 0.3 32.5
03:20 1029 30.39 858 25.34 6.4 43.6 64 0.2 32.3
03:25 1029 30.39 858 25.34 6.5 43.6 65 0.3 32.6
03:30 1029 30.39 858 25.34 6.1 43 67 0.5 32.8
03:35 1029 30.39 858 25.34 5.6 42.1 68 0.3 32.6
03:40 1029 30.39 858 25.34 5.5 41.9 68 0.1 32.1
03:45 1029 30.39 858 25.34 5.7 42.3 67 0.1 32.1
03:50 1029 30.39 858 25.34 6.4 43.6 64 0.1 32.2
03:55 1029 30.39 858 25.34 6.8 44.2 63 0.3 32.5
04:00 1029 30.39 858 25.34 6.6 43.9 65 0.5 32.9
04:05 1029 30.39 858 25.34 6.3 43.3 67 0.5 33
04:10 1029 30.39 858 25.34 5 41 74 0.7 33.3
04:15 1029 30.39 858 25.34 3.7 38.7 76 -0.1 31.8
04:20 1029 30.39 858 25.34 3.8 38.9 76 -0.1 31.9
04:25 1029 30.39 858 25.34 4.6 40.2 70 -0.4 31.4
04:30 1029 30.39 858 25.34 5.3 41.5 69 0.1 32.2
04:35 1029 30.39 858 25.34 5.8 42.5 67 0.1 32.2
04:40 1029 30.39 858 25.34 6 42.7 66 0 32.1
04:45 1029 30.39 858 25.34 5.9 42.7 67 0.3 32.5
04:50 1029 30.39 858 25.34 5.6 42.1 68 0.2 32.4
04:55 1029 30.39 858 25.34 5.3 41.6 70 0.3 32.5
05:00 1029 30.39 858 25.34 4.7 40.5 72 0.1 32.1
05:05 1029 30.39 858 25.34 4.9 40.8 70 -0.2 31.7
05:10 1029 30.39 858 25.34 5.5 41.8 67 -0.1 31.9
05:15 1029 30.39 858 25.34 5.7 42.3 67 0.1 32.3
05:20 1029 30.39 858 25.34 5.7 42.3 67 0.1 32.2
05:25 1029 30.39 858 25.34 5.8 42.4 67 0.1 32.1
05:30 1029 30.39 858 25.34 6.3 43.4 63 -0.1 31.9
05:35 1029 30.39 858 25.34 6.3 43.3 66 0.4 32.7
05:40 1029 30.39 858 25.34 6.3 43.3 64 0.1 32.1
05:45 1029 30.39 858 25.34 6.4 43.6 64 0.1 32.2
05:50 1029 30.39 858 25.34 6.4 43.6 64 0.2 32.3
05:55 1029 30.39 858 25.34 6.2 43.2 66 0.5 32.8
06:00 1029 30.39 858 25.34 5.9 42.6 67 0.2 32.3
06:05 1029 30.39 858 25.34 5.7 42.3 69 0.4 32.8
06:10 1029 30.39 858 25.34 5.9 42.6 67 0.1 32.3
06:15 1029 30.39 858 25.34 6.4 43.4 64 0 32.1
06:20 1029 30.39 858 25.34 6.8 44.3 63 0.3 32.6
06:25 1029 30.39 858 25.34 6.7 44.1 65 0.7 33.2
06:30 1029 30.39 858 25.34 6.3 43.4 65 0.2 32.4
06:35 1029 30.39 858 25.34 6.3 43.3 67 0.6 33.1
06:40 1029 30.39 858 25.34 5.9 42.7 67 0.2 32.3
06:45 1029 30.39 858 25.34 6.1 43 64 -0.1 31.8
06:50 1029 30.39 858 25.34 6.6 43.9 62 -0.1 31.8
06:55 1029 30.39 858 25.34 7.2 44.9 59 -0.3 31.5
07:00 1029 30.39 858 25.34 6.9 44.4 66 1.1 34
07:05 1029 30.39 858 25.34 5.7 42.3 67 0.2 32.3
07:10 1029 30.39 858 25.34 5.9 42.7 65 -0.2 31.7
07:15 1029 30.39 858 25.34 6.6 43.8 63 0.1 32.3
07:20 1029 30.39 858 25.34 6.8 44.2 62 -0 31.9
07:25 1029 30.39 858 25.34 6.9 44.5 62 0.1 32.2
07:30 1029 30.39 858 25.34 6.7 44.1 64 0.3 32.6
07:35 1029 30.39 858 25.34 6.4 43.6 65 0.3 32.6
07:40 1029 30.39 858 25.34 6.4 43.5 65 0.2 32.4
07:45 1029 30.39 858 25.34 6.6 43.8 65 0.4 32.8
07:50 1029 30.39 858 25.34 6.2 43.2 66 0.3 32.5
07:55 1029 30.39 859 25.37 6.2 43.2 65 0.2 32.4
08:00 1029 30.39 859 25.37 6.2 43.2 66 0.3 32.6
08:05 1029 30.39 859 25.37 6.2 43.1 67 0.4 32.8
08:10 1029 30.39 859 25.37 6.4 43.5 65 0.3 32.5
08:15 1029 30.39 859 25.37 6.8 44.2 62 0.1 32.2
08:20 1030 30.42 859 25.37 7.2 44.9 63 0.7 33.2
08:25 1030 30.42 859 25.37 7.1 44.7 64 0.7 33.3
08:30 1030 30.42 859 25.37 6.7 44 68 1.2 34.1
08:35 1030 30.42 859 25.37 5.9 42.6 71 1.1 33.9
08:40 1030 30.42 859 25.37 5.7 42.3 71 0.8 33.5
08:45 1030 30.42 859 25.37 5.8 42.4 71 0.9 33.6
08:50 1030 30.42 859 25.37 6 42.8 67 0.3 32.6
08:55 1030 30.42 859 25.37 6.4 43.6 66 0.6 33.1
09:00 1030 30.42 859 25.37 6.5 43.8 66 0.6 33
09:05 1030 30.42 859 25.37 6.5 43.7 67 0.8 33.4
09:10 1030 30.42 859 25.37 6.4 43.5 66 0.5 32.8
09:15 1030 30.42 859 25.37 6.4 43.5 66 0.5 32.9
09:20 1030 30.42 860 25.4 6.5 43.7 64 0.3 32.5
09:25 1030 30.42 859 25.37 6.6 43.8 65 0.4 32.7
09:30 1030 30.42 859 25.37 6.5 43.7 66 0.5 32.9
09:35 1030 30.42 859 25.37 6.6 43.9 64 0.4 32.7
09:40 1030 30.42 860 25.4 7 44.7 61 0.1 32.1
09:45 1030 30.42 860 25.4 7.8 46 56 -0.3 31.4
09:50 1030 30.42 859 25.37 8.4 47.2 55 -0.1 31.8
09:55 1030 30.42 859 25.37 8.6 47.5 53 -0.3 31.5
10:00 1030 30.42 859 25.37 8.8 47.9 54 0.1 32.1
10:05 1030 30.42 859 25.37 8.5 47.3 57 0.6 33.1
10:10 1030 30.42 859 25.37 8.1 46.5 59 0.5 32.9
10:15 1030 30.42 859 25.37 8.4 47 55 -0.2 31.6
10:20 1030 30.42 860 25.4 8.7 47.7 54 -0.1 31.8
10:25 1030 30.42 860 25.4 9.1 48.4 53 0.2 32.4
10:30 1030 30.42 859 25.37 9.9 49.7 49 -0.2 31.7
10:35 1030 30.42 860 25.4 10.4 50.7 48 -0.2 31.7
10:40 1030 30.42 860 25.4 10.9 51.5 46 -0.4 31.3
10:45 1031 30.45 860 25.4 10.9 51.7 48 0.5 32.9
10:50 1031 30.45 860 25.4 11.1 52 47 0.2 32.3
10:55 1030 30.42 860 25.4 10.9 51.7 47 -0 32
11:00 1031 30.45 860 25.4 11.3 52.4 45 0 32
11:05 1031 30.45 860 25.4 11.7 53.1 47 0.8 33.4
11:10 1031 30.45 860 25.4 11.9 53.4 44 0.1 32.2
11:15 1031 30.45 860 25.4 12.1 53.7 44 0.3 32.5
11:20 1031 30.45 860 25.4 13 55.5 40 -0 32
11:25 1031 30.45 860 25.4 13.7 56.6 41 0.7 33.2
11:30 1031 30.45 860 25.4 13.9 57.1 41 0.9 33.7
11:35 1031 30.45 860 25.4 14.4 57.8 40 0.9 33.7
11:40 1031 30.45 860 25.4 14.5 58.1 37 0.1 32.2
11:45 1031 30.45 860 25.4 14.8 58.7 37 0.5 33
11:50 1031 30.45 860 25.4 14.3 57.7 38 0.3 32.5
11:55 1031 30.45 860 25.4 14.5 58.1 39 0.7 33.2
12:00 1031 30.45 860 25.4 14.3 57.7 40 1 33.8
12:05 1031 30.45 860 25.4 14.1 57.3 42 1.3 34.4
12:10 1031 30.45 860 25.4 14 57.3 41 1.1 34.1
12:15 1031 30.45 860 25.4 14.6 58.3 40 1.4 34.6
12:20 1031 30.45 860 25.4 14.7 58.5 39 1 33.8
12:25 1031 30.45 860 25.4 15.7 60.3 37 1.1 34.1
12:30 1031 30.45 860 25.4 16.4 61.5 34 0.6 33.1
12:35 1031 30.45 860 25.4 16.7 62.1 34 0.8 33.4
12:40 1030 30.42 860 25.4 16.9 62.3 33 0.5 33
12:45 1031 30.45 860 25.4 17 62.7 34 1.2 34.2
12:50 1030 30.42 860 25.4 16.9 62.5 35 1.3 34.3
12:55 1030 30.42 860 25.4 16.9 62.3 34 0.9 33.6
13:00 1031 30.45 860 25.4 17.3 63.2 33 1 33.7
13:05 1030 30.42 860 25.4 17.5 63.5 32 1 33.7
13:10 1030 30.42 860 25.4 17.7 63.9 33 1.5 34.6
13:15 1030 30.42 860 25.4 17 62.5 35 1.3 34.4
13:20 1030 30.42 859 25.37 17 62.7 34 1.1 33.9
13:25 1030 30.42 859 25.37 17.3 63.1 33 1.1 34
13:30 1030 30.42 859 25.37 17.3 63.2 33 1.2 34.2
13:35 1030 30.42 859 25.37 17.5 63.4 33 1.2 34.1
13:40 1030 30.42 859 25.37 17.7 63.8 32 1.1 34
13:45 1030 30.42 859 25.37 17.6 63.6 34 1.8 35.3
13:50 1030 30.42 859 25.37 17.9 64.3 32 1.3 34.4
13:55 1030 30.42 859 25.37 18.1 64.6 32 1.4 34.5
14:00 1030 30.42 859 25.37 18 64.3 33 1.6 34.8
14:05 1030 30.42 859 25.37 17.7 63.8 33 1.3 34.3
14:10 1030 30.42 859 25.37 17.4 63.4 32 0.7 33.3
14:15 1030 30.42 859 25.37 17.2 63 33 0.9 33.6
14:20 1030 30.42 859 25.37 16.9 62.3 34 0.9 33.6
14:25 1030 30.42 859 25.37 16.5 61.7 34 0.6 33.1
14:30 1030 30.42 859 25.37 16.4 61.4 33 0.2 32.4
14:35 1030 30.42 859 25.37 16.3 61.3 33 0.2 32.3
14:40 1030 30.42 859 25.37 16.1 61 32 -0.4 31.2
14:45 1030 30.42 859 25.37 16.1 61 33 0 32
14:50 1030 30.42 859 25.37 16 60.9 33 -0.3 31.5
14:55 1030 30.42 859 25.37 16.1 60.9 33 -0.3 31.5
15:00 1030 30.42 859 25.37 16.3 61.4 31 -0.6 31
15:05 1030 30.42 859 25.37 16.6 61.8 31 -0.7 30.7
15:10 1030 30.42 859 25.37 17 62.7 30 -0.5 31.1
15:15 1030 30.42 859 25.37 17.2 62.9 30 -0.4 31.4
15:20 1030 30.42 859 25.37 17.3 63.1 31 -0.1 31.9
15:25 1030 30.42 859 25.37 17.4 63.3 30 -0.2 31.7
15:30 1030 30.42 859 25.37 17.4 63.2 31 -0 32
15:35 1030 30.42 859 25.37 17.4 63.4 31 0.2 32.3
15:40 1030 30.42 859 25.37 17.4 63.3 31 0 32
15:45 1030 30.42 859 25.37 17.2 63 31 0.1 32.1
15:50 1030 30.42 859 25.37 17.2 63 30 -0.4 31.3
15:55 1030 30.42 859 25.37 17.2 62.9 30 -0.3 31.5
16:00 1030 30.42 859 25.37 17 62.6 30 -0.6 31
16:05 1030 30.42 859 25.37 16.9 62.4 31 -0.1 31.9
16:10 1030 30.42 859 25.37 17 62.6 32 0.3 32.6
16:15 1030 30.42 859 25.37 16.9 62.5 30 -0.4 31.2
16:20 1030 30.42 859 25.37 16.8 62.2 31 -0.2 31.7
16:25 1030 30.42 859 25.37 16.8 62.2 31 -0.4 31.3
16:30 1030 30.42 859 25.37 16.8 62.3 30 -0.7 30.7
16:35 1030 30.42 859 25.37 16.7 62 31 -0.4 31.2
16:40 1030 30.42 859 25.37 16.5 61.6 29 -1.4 29.5
16:45 1030 30.42 859 25.37 16.4 61.5 30 -1 30.2
16:50 1030 30.42 860 25.4 16.3 61.4 30 -1.1 30
16:55 1030 30.42 860 25.4 16.2 61.2 30 -1.2 29.9
17:00 1030 30.42 860 25.4 16.1 61 30 -1.2 29.8
17:05 1030 30.42 860 25.4 16 60.8 31 -1.1 30.1
17:10 1030 30.42 860 25.4 15.9 60.7 31 -1.3 29.7
17:15 1030 30.42 860 25.4 15.8 60.4 32 -0.8 30.6
17:20 1030 30.42 860 25.4 15.7 60.2 32 -1 30.2
17:25 1030 30.42 860 25.4 15.5 59.8 32 -1.2 29.8
17:30 1031 30.45 860 25.4 15.4 59.8 31 -1.4 29.4
17:35 1031 30.45 860 25.4 15.3 59.5 32 -1 30.1
17:40 1031 30.45 860 25.4 15.1 59.1 33 -0.9 30.4
17:45 1031 30.45 860 25.4 15 58.9 34 -0.7 30.7
17:50 1031 30.45 860 25.4 14.8 58.7 33 -1.3 29.7
17:55 1031 30.45 860 25.4 14.7 58.4 33 -1.2 29.8
18:00 1031 30.45 860 25.4 14.5 58 34 -1.2 29.9
18:05 1031 30.45 860 25.4 14.2 57.6 35 -1 30.3
18:10 1031 30.45 860 25.4 13.9 57 37 -0.5 31
18:15 1031 30.45 860 25.4 13.7 56.6 36 -1 30.2
18:20 1031 30.45 860 25.4 13.4 56.1 37 -1.1 30
18:25 1031 30.45 860 25.4 13.2 55.8 36 -1.3 29.7
18:30 1031 30.45 860 25.4 13.2 55.7 37 -1.1 30
18:35 1031 30.45 861 25.43 12.7 54.8 40 -0.4 31.3
18:40 1031 30.45 861 25.43 12 53.6 41 -0.7 30.7
18:45 1032 30.47 861 25.43 11.9 53.4 41 -0.9 30.4
18:50 1032 30.47 861 25.43 12 53.6 41 -0.9 30.3
18:55 1032 30.47 861 25.43 11.9 53.5 41 -0.9 30.4
19:00 1032 30.47 861 25.43 11.8 53.3 42 -0.7 30.7
19:05 1032 30.47 861 25.43 10.9 51.5 46 -0.3 31.4
19:10 1032 30.47 861 25.43 10.6 51 43 -1.4 29.4
19:15 1032 30.47 861 25.43 11.3 52.4 35 -3.4 25.8
19:20 1032 30.47 861 25.43 12.4 54.3 34 -2.8 26.9
19:25 1032 30.47 861 25.43 12.7 54.8 36 -1.9 28.6
19:30 1032 30.47 861 25.43 12.4 54.3 38 -1.5 29.3
19:35 1032 30.47 861 25.43 12.1 53.8 39 -1.3 29.7
19:40 1032 30.47 861 25.43 11.7 53.1 43 -0.3 31.5
19:45 1032 30.47 862 25.45 9.8 49.6 48 -0.7 30.7
19:50 1032 30.47 862 25.45 9.5 49 46 -1.5 29.3
19:55 1032 30.47 862 25.45 10.1 50.1 44 -1.6 29.2
20:00 1032 30.47 862 25.45 10.5 50.9 43 -1.4 29.5
20:05 1032 30.47 862 25.45 10.6 51 43 -1.4 29.5
20:10 1033 30.5 862 25.45 10.5 51 43 -1.3 29.6
20:15 1033 30.5 862 25.45 10.5 50.9 44 -1.3 29.6
20:20 1033 30.5 862 25.45 10.4 50.8 44 -1.3 29.6
20:25 1033 30.5 862 25.45 10.2 50.3 46 -0.9 30.4
20:30 1033 30.5 862 25.45 9 48.1 50 -0.8 30.6
20:35 1033 30.5 862 25.45 8.6 47.4 49 -1.4 29.5
20:40 1033 30.5 862 25.45 8.9 48 47 -1.6 29.1
20:45 1033 30.5 862 25.45 9.2 48.6 47 -1.5 29.3
20:50 1033 30.5 862 25.45 9 48.2 47 -1.6 29.1
20:55 1033 30.5 862 25.45 8.9 48 48 -1.4 29.4
21:00 1033 30.5 862 25.45 8.7 47.6 47 -1.9 28.6
21:05 1033 30.5 862 25.45 9.1 48.4 46 -1.8 28.8
21:10 1033 30.5 862 25.45 9.2 48.5 46 -1.7 28.9
21:15 1033 30.5 862 25.45 8.5 47.2 50 -1.4 29.4
21:20 1033 30.5 862 25.45 8.3 46.9 49 -1.8 28.7
21:25 1033 30.5 862 25.45 8.5 47.3 47 -2.1 28.2
21:30 1033 30.5 862 25.45 8.9 48.1 46 -2.1 28.3
21:35 1033 30.5 862 25.45 9.3 48.7 45 -2 28.4
21:40 1033 30.5 862 25.45 9.1 48.3 47 -1.7 28.9
21:45 1033 30.5 862 25.45 8.2 46.7 50 -1.5 29.4
21:50 1033 30.5 862 25.45 7.4 45.2 54 -1.4 29.6
21:55 1033 30.5 862 25.45 6.9 44.4 54 -1.7 28.9
22:00 1033 30.5 862 25.45 7 44.5 53 -1.9 28.5
22:05 1033 30.5 862 25.45 7.3 45.1 52 -1.8 28.7
22:10 1033 30.5 862 25.45 7.3 45.1 52 -1.8 28.7
22:15 1033 30.5 862 25.45 7.1 44.8 54 -1.6 29.1
22:20 1033 30.5 862 25.45 7 44.7 52 -2.2 28.1
22:25 1033 30.5 862 25.45 7.7 45.8 50 -2.1 28.2
22:30 1033 30.5 862 25.45 8 46.3 49 -2 28.3
22:35 1033 30.5 862 25.45 8.2 46.7 50 -1.7 28.9
22:40 1033 30.5 862 25.45 7.8 46 52 -1.5 29.3
22:45 1033 30.5 862 25.45 7 44.5 55 -1.5 29.3
22:50 1033 30.5 862 25.45 6.3 43.4 57 -1.6 29.1
22:55 1033 30.5 863 25.48 6.7 44.1 54 -2 28.5
23:00 1033 30.5 862 25.45 6.9 44.3 54 -1.8 28.7
23:05 1033 30.5 862 25.45 6.7 44.1 56 -1.3 29.6
23:10 1033 30.5 863 25.48 6.4 43.5 56 -1.7 29
23:15 1033 30.5 863 25.48 6.4 43.6 57 -1.6 29.2
23:20 1033 30.5 863 25.48 6 42.7 60 -1.2 29.9
23:25 1033 30.5 863 25.48 6.3 43.3 55 -2 28.4
23:30 1033 30.5 863 25.48 7 44.6 55 -1.5 29.3
23:35 1033 30.5 863 25.48 6.3 43.3 57 -1.7 29
23:40 1034 30.53 863 25.48 6.1 42.9 59 -1.3 29.7
23:45 1034 30.53 863 25.48 5.4 41.6 61 -1.6 29.1
23:50 1034 30.53 863 25.48 5.6 42 60 -1.7 29
23:55 1034 30.53 863 25.48 5.9 42.6 59 -1.6 29.1
24:00 1034 30.53 863 25.48 6.3 43.3 57 -1.5 29.2